KSPS

Sheppard AFB / Wichita Falls Municipal Airport

Wichita Falls, Texas, USA
KSPS 210520Z 2106/2206 01005KT P6SM FEW250 FM220000 11008KT P6SM FEW250
Issued Valid From Valid To
Aug-21 @ 05:20 UTC
(12 hours ago)
Aug-21 @ 06:00 UTC
(12 hours ago)
Aug-22 @ 06:00 UTC
(in 12 hours)
Aug-21 @ 06:00 to Aug-22 @ 00:00
KSPS 210520Z 2106/2206 01005KT P6SM FEW250
Wind Visibility Clouds
10° at 5 knots Greater than 6 miles
  • Few at 25,000' AGL
From Aug-22 @ 00:00 to Aug-22 @ 06:00
FM220000 11008KT P6SM FEW250
Wind Visibility Clouds
110° at 8 knots Greater than 6 miles
  • Few at 25,000' AGL
KSPS 210520Z 2106/2206 01005KT P6SM FEW250 FM220000 11008KT P6SM FEW250
Issued Aug-21 @ 05:20 UTC
(12 hours ago)
Valid From Aug-21 @ 06:00 UTC
(12 hours ago)
Valid To Aug-22 @ 06:00 UTC
(in 12 hours)
Aug-21 @ 06:00 - Aug-22 @ 00:00
Wind Visibility
10° at 5 knots Greater than 6 miles
Clouds
  • Few at 25,000' AGL
From Aug-22 @ 00:00 - Aug-22 @ 06:00
Wind Visibility
110° at 8 knots Greater than 6 miles
Clouds
  • Few at 25,000' AGL